Terminal Aerodrome Forecast
Issued by NWS Huntsville, AL

Home | Current Version | Previous Version | Text Only | Print | Product List | Glossary On
Versions: 1 2 3 4 5 6 7 8 9 10 11 12 13 14 15 16 17 18 19 20 21 22 23 24 25 26 27 28
122
FTUS44 KHUN 181138
TAFMSL
TAF
KMSL 181138Z 1812/1912 28007KT P6SM BKN015 BKN030
      TEMPO 1812/1814 OVC009
     FM181400 29009KT P6SM SCT009 SCT250
     FM190000 VRB03KT P6SM SCT250=

USA.gov is the U.S. government's official web portal to all federal, state and local government web resources and services.